Startpagina
METAR-TAF:

METAR-TAF

Vliegvelden :

Gibraltar Airport

Gibraltar, Gibraltar

breedte: 36-09N, lengte: 005-21W, hoogte: 5 m

Actueel weer

Dit bericht is 59 minuten geleden gemaakt, om 18:50 UTC
Wind 12 kt uit het oosten
Temperatuur 23°C
Vochtigheid 78%
Druk 1014 hPa
Zicht 10 km of meer

METAR: LXGB 231850Z AUTO 09012KT 9999 // NCD 23/19 Q1014

Tijdstip: 21:49 (19:49 UTC)

Verwachting

Dit bericht is 6 uur en het 32 minuten geleden gemaakt, om 13:17 UTC
Verwachting geldig van 23 om 15 UTC tot 23 om 22 UTC
Wind 10 kt uit het oosten
Zicht 10 km of meer
Weinig wolken op 2600 ft

TAF: LXGB 231317Z 2315/2322 09010KT 9999 FEW026

Waarnemingen en weersverwachtingen van meer dan 4000 vliegvelden (METAR en TAF).

De beschikbare stations zijn de gele en rode punten op de kaart.

Ga met uw muis naar het station om de naam te zien.

Klik dan om waarnemingen en weersverwachtingen te zien.

kaart wijzigen: klik op de groene knoppen met een zwart kruis om in te zoomen, op de groene knop met een streepje om uit te zoomen of op de groene pijlen voor aangrenzende kaarten.


METAR-TAF: